createdAt,value
2018-02-04T00:00:28.766Z,2.73
2018-02-04T00:02:56.466Z,3.67
2018-02-04T00:05:24.238Z,3.13
2018-02-04T00:07:51.907Z,5.20
2018-02-04T00:10:19.586Z,3.70
2018-02-04T00:12:48.215Z,2.40
2018-02-04T00:15:16.016Z,3.03
2018-02-04T00:17:43.706Z,3.60
2018-02-04T00:20:12.226Z,3.53
2018-02-04T00:22:39.967Z,3.53
2018-02-04T00:25:08.594Z,2.27
2018-02-04T00:27:36.461Z,2.83
2018-02-04T00:30:04.205Z,2.23
2018-02-04T00:32:31.726Z,3.27
2018-02-04T00:35:00.366Z,4.73
2018-02-04T00:37:28.128Z,4.70
2018-02-04T00:39:55.870Z,2.47
2018-02-04T00:42:23.746Z,3.67
2018-02-04T00:44:51.598Z,3.90
2018-02-04T00:47:19.358Z,4.70
2018-02-04T00:49:47.082Z,2.87
2018-02-04T00:52:14.803Z,4.87
2018-02-04T00:54:42.538Z,7.80
2018-02-04T00:57:10.265Z,2.87
2018-02-04T00:59:37.992Z,4.00
2018-02-04T01:02:05.705Z,6.20
2018-02-04T01:04:34.186Z,8.77
2018-02-04T01:07:02.723Z,8.03
2018-02-04T01:09:30.431Z,3.93
2018-02-04T01:11:58.946Z,7.60
2018-02-04T01:14:26.834Z,7.77
2018-02-04T01:16:54.598Z,4.43
2018-02-04T01:19:22.322Z,3.50
2018-02-04T01:21:50.024Z,8.80
2018-02-04T01:24:17.558Z,7.80
2018-02-04T01:26:45.182Z,7.90
2018-02-04T01:29:13.665Z,9.07
2018-02-04T01:31:42.002Z,10.23
2018-02-04T01:34:09.711Z,5.60
2018-02-04T01:36:38.019Z,5.67
2018-02-04T01:39:06.522Z,3.77
2018-02-04T01:41:34.162Z,3.90
2018-02-04T01:44:02.462Z,4.13
2018-02-04T01:46:29.998Z,3.53
2018-02-04T01:48:58.414Z,5.00
2018-02-04T01:51:26.107Z,7.50
2018-02-04T01:53:53.721Z,5.43
2018-02-04T01:56:21.588Z,4.87
2018-02-04T01:58:49.138Z,5.10
2018-02-04T02:01:17.258Z,3.47
2018-02-04T02:03:44.782Z,4.37
2018-02-04T02:06:12.439Z,3.17
2018-02-04T02:08:39.980Z,5.83
2018-02-04T02:11:07.910Z,4.77
2018-02-04T02:13:35.515Z,11.20
2018-02-04T02:16:03.244Z,6.93
2018-02-04T02:18:32.303Z,9.43
2018-02-04T02:20:59.990Z,8.10
2018-02-04T02:23:28.427Z,6.77
2018-02-04T02:25:56.130Z,5.20
2018-02-04T02:28:24.566Z,5.00
2018-02-04T02:30:52.274Z,4.30
2018-02-04T02:33:20.611Z,3.80
2018-02-04T02:35:48.201Z,5.80
2018-02-04T02:38:15.869Z,5.53
2018-02-04T02:40:43.502Z,5.50
2018-02-04T02:43:11.043Z,9.70
2018-02-04T02:45:38.755Z,6.83
2018-02-04T02:48:07.500Z,7.50
2018-02-04T02:50:35.049Z,5.03
2018-02-04T02:53:02.559Z,5.27
2018-02-04T02:55:30.433Z,7.00
2018-02-04T02:57:58.909Z,6.40
2018-02-04T03:00:27.240Z,6.90
2018-02-04T03:02:55.006Z,5.10
2018-02-04T03:05:22.526Z,6.63
2018-02-04T03:07:51.046Z,5.30
2018-02-04T03:10:18.758Z,6.10
2018-02-04T03:12:47.394Z,4.13
2018-02-04T03:15:14.941Z,4.07
2018-02-04T03:17:42.670Z,4.33
2018-02-04T03:20:11.142Z,4.33
2018-02-04T03:22:39.617Z,6.40
2018-02-04T03:25:07.998Z,5.20
2018-02-04T03:27:36.538Z,7.30
2018-02-04T03:30:04.302Z,5.47
2018-02-04T03:32:32.314Z,4.37
2018-02-04T03:35:00.614Z,3.97
2018-02-04T03:37:28.354Z,4.50
2018-02-04T03:39:56.870Z,7.80
2018-02-04T03:42:24.529Z,10.70
2018-02-04T03:44:52.319Z,9.83
2018-02-04T03:47:19.830Z,5.73
2018-02-04T03:49:48.462Z,5.40
2018-02-04T03:52:16.016Z,6.43
2018-02-04T03:54:43.730Z,6.97
2018-02-04T03:57:12.267Z,4.70
2018-02-04T03:59:39.878Z,7.30
2018-02-04T04:02:08.409Z,5.00
2018-02-04T04:04:36.021Z,8.10
2018-02-04T04:07:04.756Z,6.10
2018-02-04T04:09:32.286Z,5.53
2018-02-04T04:11:59.916Z,6.73
2018-02-04T04:14:27.573Z,4.80
2018-02-04T04:16:55.341Z,8.63
2018-02-04T04:19:23.002Z,4.30
2018-02-04T04:21:50.728Z,5.80
2018-02-04T04:24:18.490Z,9.33
2018-02-04T04:26:46.255Z,9.23
2018-02-04T04:29:13.774Z,5.43
2018-02-04T04:31:42.294Z,9.30
2018-02-04T04:34:09.852Z,6.70
2018-02-04T04:36:37.373Z,6.43
2018-02-04T04:39:05.075Z,9.03
2018-02-04T04:41:32.736Z,5.50
2018-02-04T04:44:00.442Z,6.53
2018-02-04T04:46:28.725Z,8.47
2018-02-04T04:48:57.397Z,7.07
2018-02-04T04:51:25.123Z,7.00
2018-02-04T04:53:52.870Z,5.07
2018-02-04T04:56:20.594Z,7.67
2018-02-04T04:58:49.133Z,7.30
2018-02-04T05:01:16.838Z,6.67
2018-02-04T05:03:45.525Z,7.80
2018-02-04T05:06:13.854Z,8.43
2018-02-04T05:08:42.134Z,6.90
2018-02-04T05:11:10.104Z,7.70
2018-02-04T05:13:37.765Z,5.67
2018-02-04T05:16:05.427Z,7.07
2018-02-04T05:18:33.089Z,11.80
2018-02-04T05:21:00.955Z,7.70
2018-02-04T05:23:28.719Z,8.10
2018-02-04T05:25:56.422Z,6.60
2018-02-04T05:28:24.247Z,7.97
2018-02-04T05:30:52.012Z,10.47
2018-02-04T05:33:19.601Z,6.57
2018-02-04T05:35:47.436Z,9.23
2018-02-04T05:38:15.201Z,5.30
2018-02-04T05:40:42.730Z,9.10
2018-02-04T05:43:10.465Z,8.27
2018-02-04T05:45:38.083Z,8.00
2018-02-04T05:48:05.745Z,9.80
2018-02-04T05:50:33.758Z,6.53
2018-02-04T05:53:02.237Z,6.93
2018-02-04T05:55:30.717Z,8.17
2018-02-04T05:57:58.377Z,9.33
2018-02-04T06:00:27.126Z,9.80
2018-02-04T06:02:55.094Z,7.00
2018-02-04T06:05:22.858Z,7.83
2018-02-04T06:07:50.570Z,9.67
2018-02-04T06:10:19.513Z,9.23
2018-02-04T06:12:47.222Z,5.43
2018-02-04T06:15:15.698Z,7.33
2018-02-04T06:17:44.239Z,9.60
2018-02-04T06:20:11.854Z,11.67
2018-02-04T06:22:40.322Z,11.63
2018-02-04T06:25:09.069Z,11.30
2018-02-04T06:27:37.036Z,9.30
2018-02-04T06:30:04.803Z,6.87
2018-02-04T06:32:32.666Z,7.93
2018-02-04T06:35:00.329Z,7.50
2018-02-04T06:37:28.092Z,6.00
2018-02-04T06:39:55.802Z,5.50
2018-02-04T06:42:24.442Z,7.70
2018-02-04T06:44:52.204Z,7.73
2018-02-04T06:47:19.909Z,6.73
2018-02-04T06:49:48.274Z,7.47
2018-02-04T06:52:15.862Z,6.90
2018-02-04T06:54:44.325Z,6.83
2018-02-04T06:57:12.151Z,5.60
2018-02-04T06:59:39.982Z,6.10
2018-02-04T07:02:07.722Z,5.37
2018-02-04T07:04:36.204Z,8.20
2018-02-04T07:07:04.640Z,4.20
2018-02-04T07:09:32.345Z,5.70
2018-02-04T07:12:00.885Z,4.93
2018-02-04T07:14:28.592Z,6.20
2018-02-04T07:16:57.028Z,11.57
2018-02-04T07:19:24.639Z,6.60
2018-02-04T07:21:52.942Z,6.90
2018-02-04T07:24:20.558Z,6.73
2018-02-04T07:26:48.225Z,6.80
2018-02-04T07:29:16.053Z,6.60
2018-02-04T07:31:43.817Z,9.40
2018-02-04T07:34:11.328Z,9.50
2018-02-04T07:36:39.646Z,8.13
2018-02-04T07:39:07.314Z,10.40
2018-02-04T07:41:35.534Z,9.27
2018-02-04T07:44:04.276Z,12.00
2018-02-04T07:46:31.977Z,11.90
2018-02-04T07:48:59.643Z,13.90
2018-02-04T07:51:28.125Z,11.23
2018-02-04T07:53:56.606Z,10.80
2018-02-04T07:56:25.081Z,11.63
2018-02-04T07:58:52.694Z,11.67
2018-02-04T08:01:20.214Z,9.50
2018-02-04T08:03:48.685Z,9.97
2018-02-04T08:06:17.166Z,10.03
2018-02-04T08:08:45.705Z,13.50
2018-02-04T08:11:13.510Z,13.07
2018-02-04T08:13:41.069Z,10.50
2018-02-04T08:16:08.735Z,10.53
2018-02-04T08:18:37.214Z,15.30
2018-02-04T08:21:05.655Z,11.10
2018-02-04T08:23:33.218Z,14.63
2018-02-04T08:26:00.918Z,11.80
2018-02-04T08:28:29.353Z,11.30
2018-02-04T08:30:57.058Z,12.23
2018-02-04T08:33:24.882Z,10.83
2018-02-04T08:35:52.497Z,12.57
2018-02-04T08:38:20.777Z,11.73
2018-02-04T08:40:49.198Z,13.10
2018-02-04T08:43:16.962Z,11.37
2018-02-04T08:45:44.665Z,13.23
2018-02-04T08:48:13.010Z,15.30
2018-02-04T08:50:40.767Z,13.47
2018-02-04T08:53:08.428Z,11.87
2018-02-04T08:55:36.138Z,13.50
2018-02-04T08:58:04.571Z,11.80
2018-02-04T09:00:32.274Z,13.20
2018-02-04T09:03:00.862Z,13.30
2018-02-04T09:05:29.226Z,10.40
2018-02-04T09:07:57.060Z,12.53
2018-02-04T09:10:25.030Z,13.40
2018-02-04T09:12:52.545Z,12.40
2018-02-04T09:15:20.967Z,12.03
2018-02-04T09:17:48.629Z,13.33
2018-02-04T09:20:16.291Z,12.07
2018-02-04T09:22:44.099Z,12.40
2018-02-04T09:25:11.921Z,12.20
2018-02-04T09:27:39.583Z,25.33
2018-02-04T09:30:07.110Z,16.37
2018-02-04T09:32:35.622Z,13.40
2018-02-04T09:35:03.454Z,12.80
2018-02-04T09:37:31.190Z,11.77
2018-02-04T09:39:59.529Z,12.17
2018-02-04T09:42:27.293Z,11.60
2018-02-04T09:44:54.998Z,12.40
2018-02-04T09:47:23.310Z,14.00
2018-02-04T09:49:50.934Z,10.87
2018-02-04T09:52:18.599Z,11.60
2018-02-04T09:54:46.898Z,11.73
2018-02-04T09:57:16.258Z,9.27
2018-02-04T09:59:43.997Z,10.50
2018-02-04T10:02:11.658Z,8.27
2018-02-04T10:04:39.230Z,11.03
2018-02-04T10:07:07.087Z,12.73
2018-02-04T10:09:34.848Z,10.53
2018-02-04T10:12:02.522Z,15.00
2018-02-04T10:14:30.314Z,11.23
2018-02-04T10:16:58.082Z,11.80
2018-02-04T10:19:26.379Z,9.10
2018-02-04T10:21:54.122Z,9.93
2018-02-04T10:24:22.559Z,10.30
2018-02-04T10:26:50.178Z,9.50
2018-02-04T10:29:18.470Z,12.27
2018-02-04T10:31:46.090Z,11.60
2018-02-04T10:34:13.966Z,8.93
2018-02-04T10:36:42.404Z,10.00
2018-02-04T10:39:09.994Z,9.80
2018-02-04T10:41:39.201Z,11.30
2018-02-04T10:44:07.682Z,8.93
2018-02-04T10:46:35.507Z,12.90
2018-02-04T10:49:03.223Z,9.67
2018-02-04T10:51:37.435Z,12.20
2018-02-04T10:54:05.251Z,10.93
2018-02-04T10:56:32.990Z,11.80
2018-02-04T10:59:00.722Z,12.00
2018-02-04T11:01:29.203Z,11.63
2018-02-04T11:03:57.557Z,10.37
2018-02-04T11:06:26.054Z,13.57
2018-02-04T11:08:53.722Z,12.80
2018-02-04T11:11:22.306Z,12.73
2018-02-04T11:13:50.991Z,12.53
2018-02-04T11:16:20.906Z,16.67
2018-02-04T11:18:49.242Z,10.73
2018-02-04T11:21:17.738Z,11.33
2018-02-04T11:23:46.062Z,10.20
2018-02-04T11:26:13.621Z,7.73
2018-02-04T11:28:41.216Z,15.70
2018-02-04T11:31:18.890Z,9.73
2018-02-04T11:33:46.400Z,8.80
2018-02-04T11:36:14.241Z,11.20
2018-02-04T11:38:42.002Z,11.33
2018-02-04T11:41:09.648Z,12.33
2018-02-04T11:43:37.377Z,11.37
2018-02-04T11:46:06.054Z,11.80
2018-02-04T11:48:34.491Z,12.00
2018-02-04T11:51:02.014Z,14.50
2018-02-04T11:53:29.794Z,12.43
2018-02-04T11:55:58.444Z,12.83
2018-02-04T11:58:27.161Z,13.60
2018-02-04T12:00:54.913Z,11.30
2018-02-04T12:03:23.327Z,12.20
2018-02-04T12:05:51.114Z,9.83
2018-02-04T12:08:18.894Z,10.60
2018-02-04T12:10:46.738Z,14.80
2018-02-04T12:13:14.486Z,16.63
2018-02-04T12:15:42.283Z,22.50
2018-02-04T12:18:10.062Z,10.53
2018-02-04T12:20:38.582Z,9.40
2018-02-04T12:23:06.447Z,11.17
2018-02-04T12:25:34.222Z,12.57
2018-02-04T12:28:01.988Z,11.33
2018-02-04T12:30:29.738Z,10.43
2018-02-04T12:32:57.503Z,11.00
2018-02-04T12:35:25.374Z,10.23
2018-02-04T12:37:53.118Z,9.83
2018-02-04T12:40:20.934Z,10.23
2018-02-04T12:42:48.690Z,11.10
2018-02-04T12:45:16.570Z,11.57
2018-02-04T12:47:44.322Z,11.07
2018-02-04T12:50:11.838Z,11.73
2018-02-04T12:52:39.357Z,12.60
2018-02-04T12:55:07.172Z,12.23
2018-02-04T12:57:34.878Z,9.77
2018-02-04T13:00:02.685Z,8.93
2018-02-04T13:02:30.501Z,13.13
2018-02-04T13:04:58.302Z,10.50
2018-02-04T13:07:26.812Z,11.33
2018-02-04T13:09:54.565Z,10.27
2018-02-04T13:12:22.218Z,11.77
2018-02-04T13:14:50.558Z,11.37
2018-02-04T13:17:18.395Z,11.90
2018-02-04T13:19:46.224Z,13.70
2018-02-04T13:22:14.860Z,8.87
2018-02-04T13:24:42.646Z,11.27
2018-02-04T13:27:10.546Z,9.53
2018-02-04T13:29:38.245Z,12.97
2018-02-04T13:32:05.994Z,11.43
2018-02-04T13:34:33.870Z,10.10
2018-02-04T13:37:01.730Z,11.07
2018-02-04T13:39:29.422Z,10.30
2018-02-04T13:41:57.110Z,10.00
2018-02-04T13:44:25.442Z,10.60
2018-02-04T13:46:53.189Z,11.70
2018-02-04T13:49:21.005Z,11.27
2018-02-04T13:51:48.753Z,11.00
2018-02-04T13:54:16.630Z,11.07
2018-02-04T13:56:44.386Z,9.30
2018-02-04T13:59:12.258Z,10.77
2018-02-04T14:01:40.004Z,9.43
2018-02-04T14:04:07.766Z,9.83
2018-02-04T14:06:35.634Z,8.60
2018-02-04T14:09:03.438Z,9.70
2018-02-04T14:11:32.057Z,9.93
2018-02-04T14:13:59.801Z,12.47
2018-02-04T14:16:28.326Z,12.90
2018-02-04T14:18:55.934Z,9.60
2018-02-04T14:21:24.466Z,9.10
2018-02-04T14:23:52.342Z,11.10
2018-02-04T14:26:20.114Z,8.90
2018-02-04T14:28:47.997Z,12.53
2018-02-04T14:31:15.837Z,15.50
2018-02-04T14:33:43.657Z,14.00
2018-02-04T14:36:11.414Z,10.50
2018-02-04T14:38:40.043Z,9.83
2018-02-04T14:41:07.799Z,9.40
2018-02-04T14:43:35.545Z,10.10
2018-02-04T14:46:03.409Z,11.63
2018-02-04T14:48:31.162Z,10.07
2018-02-04T14:50:59.050Z,8.37
2018-02-04T14:53:26.820Z,10.77
2018-02-04T14:55:54.570Z,10.37
2018-02-04T14:58:22.086Z,10.60
2018-02-04T15:00:49.658Z,9.43
2018-02-04T15:03:18.273Z,11.67
2018-02-04T15:05:46.143Z,10.83
2018-02-04T15:08:14.038Z,8.40
2018-02-04T15:10:41.898Z,8.90
2018-02-04T15:13:09.765Z,12.83
2018-02-04T15:15:37.505Z,9.30
2018-02-04T15:18:05.255Z,10.07
2018-02-04T15:20:32.998Z,9.10
2018-02-04T15:23:01.637Z,9.00
2018-02-04T15:25:29.382Z,8.67
2018-02-04T15:27:57.274Z,9.40
2018-02-04T15:30:25.031Z,10.07
2018-02-04T15:32:52.810Z,8.17
2018-02-04T15:35:20.441Z,7.10
2018-02-04T15:37:47.974Z,9.33
2018-02-04T15:40:16.666Z,9.23
2018-02-04T15:42:44.534Z,8.03
2018-02-04T15:45:12.431Z,28.27
2018-02-04T15:47:40.101Z,15.73
2018-02-04T15:50:07.973Z,9.77
2018-02-04T15:52:35.854Z,8.40
2018-02-04T15:55:03.357Z,7.70
2018-02-04T15:57:30.910Z,9.80
2018-02-04T15:59:59.150Z,7.80
2018-02-04T16:02:26.956Z,8.77
2018-02-04T16:04:54.702Z,8.00
2018-02-04T16:07:23.318Z,7.40
2018-02-04T16:09:51.062Z,10.00
2018-02-04T16:12:18.822Z,8.77
2018-02-04T16:14:47.102Z,8.40
2018-02-04T16:17:14.962Z,7.90
2018-02-04T16:19:43.606Z,7.90
2018-02-04T16:22:11.470Z,7.47
2018-02-04T16:24:39.243Z,7.73
2018-02-04T16:27:06.942Z,7.30
2018-02-04T16:29:35.450Z,5.67
2018-02-04T16:32:03.206Z,10.20
2018-02-04T16:34:30.886Z,29.40
2018-02-04T16:36:58.641Z,17.77
2018-02-04T16:39:26.391Z,18.13
2018-02-04T16:41:54.158Z,16.83
2018-02-04T16:44:21.910Z,24.87
2018-02-04T16:46:49.786Z,22.73
2018-02-04T16:49:17.650Z,7.57
2018-02-04T16:51:45.514Z,11.03
2018-02-04T16:54:13.269Z,12.10
2018-02-04T16:56:41.806Z,29.70
2018-02-04T16:59:09.662Z,62.10
2018-02-04T17:01:37.322Z,36.07
2018-02-04T17:04:05.209Z,15.60
2018-02-04T17:06:32.965Z,30.80
2018-02-04T17:09:00.726Z,26.73
2018-02-04T17:11:28.246Z,14.10
2018-02-04T17:13:56.110Z,37.30
2018-02-04T17:16:23.983Z,36.93
2018-02-04T17:18:51.506Z,42.93
2018-02-04T17:21:20.050Z,53.53
2018-02-04T17:23:47.930Z,39.63
2018-02-04T17:26:15.733Z,21.47
2018-02-04T17:28:44.250Z,21.10
2018-02-04T17:31:12.004Z,15.30
2018-02-04T17:33:39.866Z,19.70
2018-02-04T17:36:07.734Z,13.70
2018-02-04T17:38:35.599Z,9.00
2018-02-04T17:41:03.118Z,10.10
2018-02-04T17:43:30.889Z,8.87
2018-02-04T17:45:59.406Z,7.50
2018-02-04T17:48:28.086Z,6.87
2018-02-04T17:50:55.959Z,6.80
2018-02-04T17:53:23.826Z,5.73
2018-02-04T17:55:51.570Z,6.23
2018-02-04T17:58:20.087Z,13.10
2018-02-04T18:00:47.974Z,7.73
2018-02-04T18:03:15.968Z,7.70
2018-02-04T18:05:44.655Z,5.90
2018-02-04T18:08:12.470Z,7.10
2018-02-04T18:10:40.064Z,7.30
2018-02-04T18:13:07.686Z,5.80
2018-02-04T18:15:35.434Z,8.13
2018-02-04T18:18:03.174Z,6.90
2018-02-04T18:20:31.686Z,6.53
2018-02-04T18:22:59.546Z,6.40
2018-02-04T18:25:27.080Z,6.57
2018-02-04T18:27:55.598Z,6.50
2018-02-04T18:30:23.326Z,7.00
2018-02-04T18:32:51.914Z,5.17
2018-02-04T18:35:20.462Z,6.67
2018-02-04T18:37:48.346Z,5.87
2018-02-04T18:40:16.154Z,6.40
2018-02-04T18:42:43.722Z,6.03
2018-02-04T18:45:11.261Z,5.40
2018-02-04T18:47:39.666Z,7.17
2018-02-04T18:50:07.550Z,6.80
2018-02-04T18:52:35.293Z,9.17
2018-02-04T18:55:03.150Z,7.73
2018-02-04T18:57:30.725Z,10.70
2018-02-04T18:59:58.518Z,19.53
2018-02-04T19:02:26.454Z,9.07
2018-02-04T19:04:53.970Z,12.33
2018-02-04T19:07:22.530Z,6.70
2018-02-04T19:09:50.345Z,9.23
2018-02-04T19:12:18.006Z,8.13
2018-02-04T19:14:45.533Z,8.00
2018-02-04T19:17:13.886Z,5.50
2018-02-04T19:19:41.445Z,7.40
2018-02-04T19:22:08.957Z,9.17
2018-02-04T19:24:36.487Z,8.60
2018-02-04T19:27:04.946Z,9.20
2018-02-04T19:29:32.529Z,11.37
2018-02-04T19:32:00.975Z,11.30
2018-02-04T19:34:28.495Z,6.67
2018-02-04T19:36:56.819Z,8.40
2018-02-04T19:39:24.527Z,7.97
2018-02-04T19:41:52.090Z,7.23
2018-02-04T19:44:19.633Z,10.20
2018-02-04T19:46:47.909Z,7.27
2018-02-04T19:49:16.535Z,8.87
2018-02-04T19:51:44.083Z,5.63
2018-02-04T19:54:11.806Z,8.30
2018-02-04T19:56:39.583Z,9.43
2018-02-04T19:59:08.370Z,11.47
2018-02-04T20:01:36.791Z,11.80
2018-02-04T20:04:04.546Z,11.67
2018-02-04T20:06:32.173Z,8.23
2018-02-04T20:09:00.709Z,10.50
2018-02-04T20:11:28.377Z,19.23
2018-02-04T20:13:56.258Z,18.93
2018-02-04T20:16:24.151Z,15.60
2018-02-04T20:18:51.782Z,20.50
2018-02-04T20:21:19.438Z,13.07
2018-02-04T20:23:47.342Z,7.40
2018-02-04T20:26:15.982Z,13.60
2018-02-04T20:28:43.731Z,9.03
2018-02-04T20:31:11.338Z,10.17
2018-02-04T20:33:51.746Z,10.43
2018-02-04T20:36:19.258Z,14.63
2018-02-04T20:38:47.550Z,15.43
2018-02-04T20:41:16.067Z,9.50
2018-02-04T20:43:43.766Z,8.97
2018-02-04T20:46:11.506Z,11.53
2018-02-04T20:48:39.193Z,10.47
2018-02-04T20:51:06.788Z,7.90
2018-02-04T20:53:34.439Z,27.17
2018-02-04T20:56:02.762Z,25.73
2018-02-04T20:58:30.616Z,24.80
2018-02-04T21:00:58.374Z,22.33
2018-02-04T21:03:26.216Z,30.07
2018-02-04T21:05:53.794Z,19.43
2018-02-04T21:08:22.172Z,34.73
2018-02-04T21:10:49.894Z,10.60
2018-02-04T21:13:17.450Z,7.93
2018-02-04T21:15:45.194Z,9.63
2018-02-04T21:18:13.098Z,11.77
2018-02-04T21:20:41.713Z,7.63
2018-02-04T21:23:09.288Z,7.20
2018-02-04T21:25:36.802Z,7.77
2018-02-04T21:28:05.130Z,7.13
2018-02-04T21:30:32.854Z,7.17
2018-02-04T21:33:00.611Z,6.77
2018-02-04T21:35:28.893Z,9.13
2018-02-04T21:37:56.803Z,8.93
2018-02-04T21:40:24.565Z,17.00
2018-02-04T21:42:52.765Z,16.40
2018-02-04T21:45:20.622Z,13.20
2018-02-04T21:47:48.474Z,19.27
2018-02-04T21:50:16.150Z,11.57
2018-02-04T21:52:43.902Z,10.47
2018-02-04T21:55:11.809Z,11.90
2018-02-04T21:57:40.326Z,30.87
2018-02-04T22:00:07.938Z,72.10
2018-02-04T22:02:35.666Z,30.63
2018-02-04T22:05:03.982Z,48.77
2018-02-04T22:07:32.462Z,23.30
2018-02-04T22:10:00.126Z,15.07
2018-02-04T22:12:28.622Z,24.40
2018-02-04T22:14:57.090Z,11.97
2018-02-04T22:17:25.527Z,13.77
2018-02-04T22:19:53.189Z,16.70
2018-02-04T22:22:20.742Z,24.27
2018-02-04T22:24:48.270Z,34.10
2018-02-04T22:27:15.809Z,43.60
2018-02-04T22:29:44.347Z,11.00
2018-02-04T22:32:12.012Z,18.00
2018-02-04T22:34:39.558Z,12.33
2018-02-04T22:37:07.378Z,13.77
2018-02-04T22:39:35.776Z,15.17
2018-02-04T22:42:04.191Z,14.00
2018-02-04T22:44:31.765Z,15.40
2018-02-04T22:46:59.412Z,13.10
2018-02-04T22:49:26.933Z,9.87
2018-02-04T22:51:54.838Z,12.23
2018-02-04T22:54:22.808Z,9.53
2018-02-04T22:56:50.321Z,9.23
2018-02-04T22:59:18.745Z,12.77
2018-02-04T23:01:46.450Z,10.70
2018-02-04T23:04:14.990Z,11.13
2018-02-04T23:06:42.578Z,13.20
2018-02-04T23:09:10.251Z,16.90
2018-02-04T23:11:38.794Z,16.97
2018-02-04T23:14:06.501Z,15.03
2018-02-04T23:16:34.936Z,10.20
2018-02-04T23:19:02.597Z,8.27
2018-02-04T23:21:30.260Z,8.87
2018-02-04T23:23:57.815Z,12.07
2018-02-04T23:26:25.480Z,8.20
2018-02-04T23:28:52.994Z,9.00
2018-02-04T23:31:21.294Z,8.27
2018-02-04T23:33:48.818Z,9.73
2018-02-04T23:36:17.356Z,9.40
2018-02-04T23:38:44.938Z,9.20
2018-02-04T23:41:12.718Z,9.10
2018-02-04T23:43:41.021Z,9.30
2018-02-04T23:46:08.658Z,8.33
2018-02-04T23:48:36.226Z,10.67
2018-02-04T23:51:04.715Z,8.87
2018-02-04T23:53:32.421Z,13.50
2018-02-04T23:56:00.126Z,9.00
2018-02-04T23:58:28.666Z,9.00
